sensor_id;sensor_type;location;lat;lon;timestamp;P1;durP1;ratioP1;P2;durP2;ratioP2
5890;SDS011;2971;52.420;7.080;2023-08-17T00:00:19;7.13;;;3.43;;
5890;SDS011;2971;52.420;7.080;2023-08-17T00:02:44;6.40;;;3.70;;
5890;SDS011;2971;52.420;7.080;2023-08-17T00:05:11;8.00;;;3.40;;
5890;SDS011;2971;52.420;7.080;2023-08-17T00:07:37;6.53;;;3.57;;
5890;SDS011;2971;52.420;7.080;2023-08-17T00:10:02;6.30;;;3.30;;
5890;SDS011;2971;52.420;7.080;2023-08-17T00:12:28;6.37;;;3.20;;
5890;SDS011;2971;52.420;7.080;2023-08-17T00:14:54;7.03;;;3.73;;
5890;SDS011;2971;52.420;7.080;2023-08-17T00:17:19;5.90;;;3.17;;
5890;SDS011;2971;52.420;7.080;2023-08-17T00:19:45;6.23;;;3.40;;
5890;SDS011;2971;52.420;7.080;2023-08-17T00:22:10;6.70;;;3.40;;
5890;SDS011;2971;52.420;7.080;2023-08-17T00:24:36;8.97;;;3.33;;
5890;SDS011;2971;52.420;7.080;2023-08-17T00:27:01;8.43;;;3.40;;
5890;SDS011;2971;52.420;7.080;2023-08-17T00:29:28;5.57;;;3.10;;
5890;SDS011;2971;52.420;7.080;2023-08-17T00:31:53;7.90;;;3.23;;
5890;SDS011;2971;52.420;7.080;2023-08-17T00:34:19;5.87;;;3.40;;
5890;SDS011;2971;52.420;7.080;2023-08-17T00:36:44;7.07;;;3.13;;
5890;SDS011;2971;52.420;7.080;2023-08-17T00:39:10;5.83;;;3.10;;
5890;SDS011;2971;52.420;7.080;2023-08-17T00:41:35;6.47;;;3.30;;
5890;SDS011;2971;52.420;7.080;2023-08-17T00:44:01;5.77;;;3.13;;
5890;SDS011;2971;52.420;7.080;2023-08-17T00:46:27;7.83;;;3.20;;
5890;SDS011;2971;52.420;7.080;2023-08-17T00:48:53;10.30;;;3.50;;
5890;SDS011;2971;52.420;7.080;2023-08-17T00:51:20;5.90;;;2.83;;
5890;SDS011;2971;52.420;7.080;2023-08-17T00:53:50;8.80;;;3.50;;
5890;SDS011;2971;52.420;7.080;2023-08-17T00:56:16;10.50;;;3.37;;
5890;SDS011;2971;52.420;7.080;2023-08-17T00:58:42;6.27;;;3.70;;
5890;SDS011;2971;52.420;7.080;2023-08-17T01:01:08;6.30;;;3.30;;
5890;SDS011;2971;52.420;7.080;2023-08-17T01:03:33;6.23;;;3.60;;
5890;SDS011;2971;52.420;7.080;2023-08-17T01:05:59;6.50;;;3.20;;
5890;SDS011;2971;52.420;7.080;2023-08-17T01:08:27;7.33;;;3.30;;
5890;SDS011;2971;52.420;7.080;2023-08-17T01:16:52;7.37;;;2.90;;
5890;SDS011;2971;52.420;7.080;2023-08-17T01:19:27;5.10;;;3.03;;
5890;SDS011;2971;52.420;7.080;2023-08-17T01:21:54;6.33;;;3.17;;
5890;SDS011;2971;52.420;7.080;2023-08-17T01:24:23;5.27;;;3.20;;
5890;SDS011;2971;52.420;7.080;2023-08-17T01:26:48;9.10;;;3.40;;
5890;SDS011;2971;52.420;7.080;2023-08-17T01:29:13;5.90;;;3.10;;
5890;SDS011;2971;52.420;7.080;2023-08-17T01:31:44;5.40;;;2.80;;
5890;SDS011;2971;52.420;7.080;2023-08-17T01:34:15;5.60;;;2.93;;
5890;SDS011;2971;52.420;7.080;2023-08-17T01:36:45;4.83;;;3.07;;
5890;SDS011;2971;52.420;7.080;2023-08-17T01:39:12;8.07;;;2.87;;
5890;SDS011;2971;52.420;7.080;2023-08-17T01:41:39;5.90;;;2.90;;
5890;SDS011;2971;52.420;7.080;2023-08-17T01:44:05;5.23;;;2.83;;
5890;SDS011;2971;52.420;7.080;2023-08-17T01:46:31;5.23;;;2.97;;
5890;SDS011;2971;52.420;7.080;2023-08-17T01:48:57;4.70;;;3.00;;
5890;SDS011;2971;52.420;7.080;2023-08-17T01:51:23;6.97;;;2.70;;
5890;SDS011;2971;52.420;7.080;2023-08-17T01:53:49;4.77;;;2.90;;
5890;SDS011;2971;52.420;7.080;2023-08-17T01:56:14;6.40;;;2.90;;
5890;SDS011;2971;52.420;7.080;2023-08-17T01:58:40;5.67;;;2.80;;
5890;SDS011;2971;52.420;7.080;2023-08-17T02:01:05;4.87;;;3.10;;
5890;SDS011;2971;52.420;7.080;2023-08-17T02:03:31;6.90;;;3.30;;
5890;SDS011;2971;52.420;7.080;2023-08-17T02:05:56;7.07;;;3.07;;
5890;SDS011;2971;52.420;7.080;2023-08-17T02:08:22;6.43;;;2.97;;
5890;SDS011;2971;52.420;7.080;2023-08-17T02:10:48;5.83;;;2.97;;
5890;SDS011;2971;52.420;7.080;2023-08-17T02:13:14;5.27;;;3.10;;
5890;SDS011;2971;52.420;7.080;2023-08-17T02:15:40;8.43;;;3.17;;
5890;SDS011;2971;52.420;7.080;2023-08-17T02:18:05;7.83;;;3.03;;
5890;SDS011;2971;52.420;7.080;2023-08-17T02:20:30;7.47;;;3.20;;
5890;SDS011;2971;52.420;7.080;2023-08-17T02:22:56;7.93;;;3.37;;
5890;SDS011;2971;52.420;7.080;2023-08-17T02:25:21;4.67;;;3.30;;
5890;SDS011;2971;52.420;7.080;2023-08-17T02:27:47;5.90;;;3.00;;
5890;SDS011;2971;52.420;7.080;2023-08-17T02:30:12;8.40;;;3.43;;
5890;SDS011;2971;52.420;7.080;2023-08-17T02:32:38;5.80;;;3.07;;
5890;SDS011;2971;52.420;7.080;2023-08-17T02:35:04;10.27;;;3.20;;
5890;SDS011;2971;52.420;7.080;2023-08-17T02:37:29;5.80;;;2.90;;
5890;SDS011;2971;52.420;7.080;2023-08-17T02:39:55;4.23;;;2.73;;
5890;SDS011;2971;52.420;7.080;2023-08-17T02:42:20;5.00;;;2.70;;
5890;SDS011;2971;52.420;7.080;2023-08-17T02:44:45;5.93;;;3.10;;
5890;SDS011;2971;52.420;7.080;2023-08-17T02:47:11;5.10;;;2.90;;
5890;SDS011;2971;52.420;7.080;2023-08-17T02:49:36;6.43;;;3.23;;
5890;SDS011;2971;52.420;7.080;2023-08-17T02:52:02;5.47;;;2.90;;
5890;SDS011;2971;52.420;7.080;2023-08-17T02:54:27;5.90;;;3.27;;
5890;SDS011;2971;52.420;7.080;2023-08-17T02:56:53;6.90;;;3.37;;
5890;SDS011;2971;52.420;7.080;2023-08-17T02:59:18;4.87;;;3.10;;
5890;SDS011;2971;52.420;7.080;2023-08-17T03:01:45;4.60;;;3.30;;
5890;SDS011;2971;52.420;7.080;2023-08-17T03:04:10;6.03;;;3.20;;
5890;SDS011;2971;52.420;7.080;2023-08-17T03:06:35;5.17;;;3.00;;
5890;SDS011;2971;52.420;7.080;2023-08-17T03:09:01;6.33;;;3.03;;
5890;SDS011;2971;52.420;7.080;2023-08-17T03:11:27;5.57;;;2.97;;
5890;SDS011;2971;52.420;7.080;2023-08-17T03:13:52;9.30;;;3.13;;
5890;SDS011;2971;52.420;7.080;2023-08-17T03:16:20;4.47;;;3.03;;
5890;SDS011;2971;52.420;7.080;2023-08-17T03:18:46;5.17;;;2.87;;
5890;SDS011;2971;52.420;7.080;2023-08-17T03:21:13;5.87;;;3.20;;
5890;SDS011;2971;52.420;7.080;2023-08-17T03:23:38;4.67;;;2.53;;
5890;SDS011;2971;52.420;7.080;2023-08-17T03:26:05;6.03;;;3.47;;
5890;SDS011;2971;52.420;7.080;2023-08-17T03:28:31;6.07;;;3.10;;
5890;SDS011;2971;52.420;7.080;2023-08-17T03:30:57;5.90;;;2.83;;
5890;SDS011;2971;52.420;7.080;2023-08-17T03:33:22;5.10;;;2.77;;
5890;SDS011;2971;52.420;7.080;2023-08-17T03:35:47;9.97;;;3.10;;
5890;SDS011;2971;52.420;7.080;2023-08-17T03:38:13;6.60;;;2.90;;
5890;SDS011;2971;52.420;7.080;2023-08-17T03:40:38;5.87;;;3.03;;
5890;SDS011;2971;52.420;7.080;2023-08-17T03:43:04;5.13;;;2.83;;
5890;SDS011;2971;52.420;7.080;2023-08-17T03:45:30;4.90;;;2.70;;
5890;SDS011;2971;52.420;7.080;2023-08-17T03:47:56;9.10;;;2.97;;
5890;SDS011;2971;52.420;7.080;2023-08-17T03:50:22;5.27;;;3.17;;
5890;SDS011;2971;52.420;7.080;2023-08-17T03:52:47;6.17;;;3.30;;
5890;SDS011;2971;52.420;7.080;2023-08-17T03:55:13;5.20;;;3.30;;
5890;SDS011;2971;52.420;7.080;2023-08-17T03:57:38;6.37;;;3.20;;
5890;SDS011;2971;52.420;7.080;2023-08-17T04:00:04;4.60;;;3.17;;
5890;SDS011;2971;52.420;7.080;2023-08-17T04:02:31;6.03;;;3.47;;
5890;SDS011;2971;52.420;7.080;2023-08-17T04:04:56;5.73;;;3.43;;
5890;SDS011;2971;52.420;7.080;2023-08-17T04:07:22;7.03;;;3.20;;
5890;SDS011;2971;52.420;7.080;2023-08-17T04:09:48;6.13;;;3.20;;
5890;SDS011;2971;52.420;7.080;2023-08-17T04:12:14;7.23;;;3.10;;
5890;SDS011;2971;52.420;7.080;2023-08-17T04:14:40;8.10;;;3.80;;
5890;SDS011;2971;52.420;7.080;2023-08-17T04:17:05;7.00;;;3.50;;
5890;SDS011;2971;52.420;7.080;2023-08-17T04:19:31;5.97;;;3.53;;
5890;SDS011;2971;52.420;7.080;2023-08-17T04:21:56;5.73;;;3.27;;
5890;SDS011;2971;52.420;7.080;2023-08-17T04:24:22;6.20;;;3.10;;
5890;SDS011;2971;52.420;7.080;2023-08-17T04:26:47;8.33;;;3.43;;
5890;SDS011;2971;52.420;7.080;2023-08-17T04:29:13;6.17;;;3.17;;
5890;SDS011;2971;52.420;7.080;2023-08-17T04:31:38;6.00;;;3.47;;
5890;SDS011;2971;52.420;7.080;2023-08-17T04:34:03;7.87;;;3.40;;
5890;SDS011;2971;52.420;7.080;2023-08-17T04:36:29;5.70;;;3.07;;
5890;SDS011;2971;52.420;7.080;2023-08-17T04:38:54;6.10;;;3.10;;
5890;SDS011;2971;52.420;7.080;2023-08-17T04:41:20;7.57;;;3.30;;
5890;SDS011;2971;52.420;7.080;2023-08-17T04:43:45;5.07;;;3.10;;
5890;SDS011;2971;52.420;7.080;2023-08-17T04:46:11;6.00;;;3.10;;
5890;SDS011;2971;52.420;7.080;2023-08-17T04:48:37;7.67;;;3.43;;
5890;SDS011;2971;52.420;7.080;2023-08-17T04:51:03;7.93;;;3.40;;
5890;SDS011;2971;52.420;7.080;2023-08-17T04:53:29;7.13;;;3.43;;
5890;SDS011;2971;52.420;7.080;2023-08-17T04:55:54;6.80;;;3.33;;
5890;SDS011;2971;52.420;7.080;2023-08-17T04:58:21;5.47;;;3.60;;
5890;SDS011;2971;52.420;7.080;2023-08-17T05:00:47;6.47;;;3.43;;
5890;SDS011;2971;52.420;7.080;2023-08-17T05:03:13;8.10;;;3.63;;
5890;SDS011;2971;52.420;7.080;2023-08-17T05:05:38;5.53;;;3.33;;
5890;SDS011;2971;52.420;7.080;2023-08-17T05:08:04;7.53;;;3.40;;
5890;SDS011;2971;52.420;7.080;2023-08-17T05:10:29;5.50;;;3.37;;
5890;SDS011;2971;52.420;7.080;2023-08-17T05:12:55;5.50;;;3.40;;
5890;SDS011;2971;52.420;7.080;2023-08-17T05:15:20;5.93;;;3.40;;
5890;SDS011;2971;52.420;7.080;2023-08-17T05:17:46;6.63;;;3.77;;
5890;SDS011;2971;52.420;7.080;2023-08-17T05:20:11;5.70;;;3.70;;
5890;SDS011;2971;52.420;7.080;2023-08-17T05:22:40;6.33;;;3.30;;
5890;SDS011;2971;52.420;7.080;2023-08-17T05:25:06;7.93;;;3.33;;
5890;SDS011;2971;52.420;7.080;2023-08-17T05:27:32;8.10;;;3.57;;
5890;SDS011;2971;52.420;7.080;2023-08-17T05:29:57;9.97;;;3.80;;
5890;SDS011;2971;52.420;7.080;2023-08-17T05:32:22;8.10;;;3.60;;
5890;SDS011;2971;52.420;7.080;2023-08-17T05:34:48;6.10;;;3.23;;
5890;SDS011;2971;52.420;7.080;2023-08-17T05:37:13;6.27;;;4.03;;
5890;SDS011;2971;52.420;7.080;2023-08-17T05:39:40;7.33;;;3.73;;
5890;SDS011;2971;52.420;7.080;2023-08-17T05:42:06;5.43;;;3.60;;
5890;SDS011;2971;52.420;7.080;2023-08-17T05:44:31;6.67;;;3.60;;
5890;SDS011;2971;52.420;7.080;2023-08-17T05:46:57;5.50;;;3.50;;
5890;SDS011;2971;52.420;7.080;2023-08-17T05:49:22;6.63;;;3.57;;
5890;SDS011;2971;52.420;7.080;2023-08-17T05:51:47;8.23;;;3.70;;
5890;SDS011;2971;52.420;7.080;2023-08-17T05:54:13;8.43;;;3.60;;
5890;SDS011;2971;52.420;7.080;2023-08-17T05:56:38;9.30;;;4.17;;
5890;SDS011;2971;52.420;7.080;2023-08-17T05:59:10;8.00;;;3.47;;
5890;SDS011;2971;52.420;7.080;2023-08-17T06:01:35;7.17;;;3.60;;
5890;SDS011;2971;52.420;7.080;2023-08-17T06:04:01;7.90;;;3.87;;
5890;SDS011;2971;52.420;7.080;2023-08-17T06:06:27;6.43;;;3.70;;
5890;SDS011;2971;52.420;7.080;2023-08-17T06:08:52;6.67;;;3.63;;
5890;SDS011;2971;52.420;7.080;2023-08-17T06:11:18;6.53;;;3.80;;
5890;SDS011;2971;52.420;7.080;2023-08-17T06:13:43;7.87;;;3.77;;
5890;SDS011;2971;52.420;7.080;2023-08-17T06:16:09;7.03;;;3.73;;
5890;SDS011;2971;52.420;7.080;2023-08-17T06:18:35;6.63;;;3.73;;
5890;SDS011;2971;52.420;7.080;2023-08-17T06:21:01;7.93;;;3.70;;
5890;SDS011;2971;52.420;7.080;2023-08-17T06:23:26;5.03;;;3.53;;
5890;SDS011;2971;52.420;7.080;2023-08-17T06:25:55;7.47;;;3.60;;
5890;SDS011;2971;52.420;7.080;2023-08-17T06:28:21;5.17;;;3.30;;
5890;SDS011;2971;52.420;7.080;2023-08-17T06:30:47;7.50;;;3.50;;
5890;SDS011;2971;52.420;7.080;2023-08-17T06:33:12;6.47;;;3.30;;
5890;SDS011;2971;52.420;7.080;2023-08-17T06:35:37;6.10;;;3.10;;
5890;SDS011;2971;52.420;7.080;2023-08-17T06:38:03;6.93;;;3.53;;
5890;SDS011;2971;52.420;7.080;2023-08-17T06:40:28;8.23;;;3.53;;
5890;SDS011;2971;52.420;7.080;2023-08-17T06:42:54;9.93;;;3.50;;
5890;SDS011;2971;52.420;7.080;2023-08-17T06:45:20;7.30;;;3.43;;
5890;SDS011;2971;52.420;7.080;2023-08-17T06:47:47;9.57;;;3.50;;
5890;SDS011;2971;52.420;7.080;2023-08-17T06:50:13;5.00;;;3.20;;
5890;SDS011;2971;52.420;7.080;2023-08-17T06:52:39;8.80;;;3.20;;
5890;SDS011;2971;52.420;7.080;2023-08-17T06:55:05;8.73;;;3.27;;
5890;SDS011;2971;52.420;7.080;2023-08-17T06:57:31;6.40;;;3.10;;
5890;SDS011;2971;52.420;7.080;2023-08-17T06:59:56;6.80;;;3.23;;
5890;SDS011;2971;52.420;7.080;2023-08-17T07:02:22;5.37;;;3.30;;
5890;SDS011;2971;52.420;7.080;2023-08-17T07:04:47;7.80;;;3.47;;
5890;SDS011;2971;52.420;7.080;2023-08-17T07:07:12;7.20;;;3.13;;
5890;SDS011;2971;52.420;7.080;2023-08-17T07:09:39;4.70;;;3.10;;
5890;SDS011;2971;52.420;7.080;2023-08-17T07:12:05;7.37;;;3.10;;
5890;SDS011;2971;52.420;7.080;2023-08-17T07:14:30;6.07;;;3.33;;
5890;SDS011;2971;52.420;7.080;2023-08-17T07:16:55;6.97;;;3.20;;
5890;SDS011;2971;52.420;7.080;2023-08-17T07:19:21;6.97;;;3.30;;
5890;SDS011;2971;52.420;7.080;2023-08-17T07:21:47;5.63;;;3.00;;
5890;SDS011;2971;52.420;7.080;2023-08-17T07:24:13;6.27;;;2.87;;
5890;SDS011;2971;52.420;7.080;2023-08-17T07:26:39;6.73;;;3.20;;
5890;SDS011;2971;52.420;7.080;2023-08-17T07:29:05;6.23;;;3.27;;
5890;SDS011;2971;52.420;7.080;2023-08-17T07:31:30;5.60;;;3.50;;
5890;SDS011;2971;52.420;7.080;2023-08-17T07:33:59;6.67;;;3.20;;
5890;SDS011;2971;52.420;7.080;2023-08-17T07:36:25;6.03;;;2.93;;
5890;SDS011;2971;52.420;7.080;2023-08-17T07:38:50;5.27;;;3.00;;
5890;SDS011;2971;52.420;7.080;2023-08-17T07:41:16;6.83;;;3.50;;
5890;SDS011;2971;52.420;7.080;2023-08-17T07:43:41;8.37;;;3.60;;
5890;SDS011;2971;52.420;7.080;2023-08-17T07:46:07;7.10;;;3.70;;
5890;SDS011;2971;52.420;7.080;2023-08-17T07:48:32;10.53;;;3.77;;
5890;SDS011;2971;52.420;7.080;2023-08-17T07:50:58;5.60;;;3.40;;
5890;SDS011;2971;52.420;7.080;2023-08-17T07:53:24;7.97;;;4.33;;
5890;SDS011;2971;52.420;7.080;2023-08-17T07:55:50;7.33;;;3.50;;
5890;SDS011;2971;52.420;7.080;2023-08-17T07:58:15;13.07;;;3.80;;
5890;SDS011;2971;52.420;7.080;2023-08-17T08:00:40;6.30;;;3.67;;
5890;SDS011;2971;52.420;7.080;2023-08-17T08:03:06;7.90;;;4.10;;
5890;SDS011;2971;52.420;7.080;2023-08-17T08:05:31;7.03;;;4.07;;
5890;SDS011;2971;52.420;7.080;2023-08-17T08:07:57;8.03;;;4.27;;
5890;SDS011;2971;52.420;7.080;2023-08-17T08:10:22;7.53;;;3.80;;
5890;SDS011;2971;52.420;7.080;2023-08-17T08:12:47;7.90;;;4.30;;
5890;SDS011;2971;52.420;7.080;2023-08-17T08:15:13;7.63;;;4.40;;
5890;SDS011;2971;52.420;7.080;2023-08-17T08:17:38;8.17;;;3.57;;
5890;SDS011;2971;52.420;7.080;2023-08-17T08:20:04;8.60;;;4.10;;
5890;SDS011;2971;52.420;7.080;2023-08-17T08:22:30;8.07;;;4.27;;
5890;SDS011;2971;52.420;7.080;2023-08-17T08:24:55;5.87;;;3.70;;
5890;SDS011;2971;52.420;7.080;2023-08-17T08:27:21;5.53;;;3.97;;
5890;SDS011;2971;52.420;7.080;2023-08-17T08:29:46;9.50;;;4.10;;
5890;SDS011;2971;52.420;7.080;2023-08-17T08:32:12;6.10;;;4.33;;
5890;SDS011;2971;52.420;7.080;2023-08-17T08:34:37;7.30;;;4.20;;
5890;SDS011;2971;52.420;7.080;2023-08-17T08:37:03;9.10;;;4.60;;
5890;SDS011;2971;52.420;7.080;2023-08-17T08:39:28;5.17;;;4.10;;
5890;SDS011;2971;52.420;7.080;2023-08-17T08:41:54;6.00;;;4.10;;
5890;SDS011;2971;52.420;7.080;2023-08-17T08:44:20;6.63;;;4.00;;
5890;SDS011;2971;52.420;7.080;2023-08-17T08:46:45;5.70;;;4.37;;
5890;SDS011;2971;52.420;7.080;2023-08-17T08:49:11;7.40;;;4.77;;
5890;SDS011;2971;52.420;7.080;2023-08-17T08:51:41;5.57;;;4.43;;
5890;SDS011;2971;52.420;7.080;2023-08-17T08:54:08;9.70;;;4.67;;
5890;SDS011;2971;52.420;7.080;2023-08-17T08:56:38;9.00;;;4.77;;
5890;SDS011;2971;52.420;7.080;2023-08-17T08:59:04;6.67;;;4.53;;
5890;SDS011;2971;52.420;7.080;2023-08-17T09:01:32;6.40;;;4.40;;
5890;SDS011;2971;52.420;7.080;2023-08-17T09:03:59;5.50;;;4.10;;
5890;SDS011;2971;52.420;7.080;2023-08-17T09:06:26;5.57;;;4.13;;
5890;SDS011;2971;52.420;7.080;2023-08-17T09:08:52;6.23;;;4.07;;
5890;SDS011;2971;52.420;7.080;2023-08-17T09:11:18;4.60;;;3.93;;
5890;SDS011;2971;52.420;7.080;2023-08-17T09:13:43;5.90;;;4.63;;
5890;SDS011;2971;52.420;7.080;2023-08-17T09:16:09;8.10;;;4.60;;
5890;SDS011;2971;52.420;7.080;2023-08-17T09:18:34;5.30;;;4.53;;
5890;SDS011;2971;52.420;7.080;2023-08-17T09:21:01;4.73;;;4.23;;
5890;SDS011;2971;52.420;7.080;2023-08-17T09:23:27;5.90;;;4.40;;
5890;SDS011;2971;52.420;7.080;2023-08-17T09:25:52;6.43;;;4.50;;
5890;SDS011;2971;52.420;7.080;2023-08-17T09:28:23;7.30;;;4.60;;
5890;SDS011;2971;52.420;7.080;2023-08-17T09:33:17;6.23;;;4.57;;
5890;SDS011;2971;52.420;7.080;2023-08-17T09:35:44;5.60;;;4.57;;
5890;SDS011;2971;52.420;7.080;2023-08-17T09:38:09;5.80;;;4.77;;
5890;SDS011;2971;52.420;7.080;2023-08-17T09:40:34;6.17;;;4.67;;
5890;SDS011;2971;52.420;7.080;2023-08-17T09:43:01;6.20;;;5.20;;
5890;SDS011;2971;52.420;7.080;2023-08-17T09:45:27;7.60;;;4.67;;
5890;SDS011;2971;52.420;7.080;2023-08-17T09:47:54;5.97;;;4.73;;
5890;SDS011;2971;52.420;7.080;2023-08-17T09:50:21;5.77;;;4.70;;
5890;SDS011;2971;52.420;7.080;2023-08-17T09:52:47;5.60;;;4.90;;
5890;SDS011;2971;52.420;7.080;2023-08-17T09:55:18;6.67;;;4.63;;
5890;SDS011;2971;52.420;7.080;2023-08-17T09:57:44;5.77;;;4.93;;
5890;SDS011;2971;52.420;7.080;2023-08-17T10:00:10;6.77;;;5.40;;
5890;SDS011;2971;52.420;7.080;2023-08-17T10:02:36;5.53;;;5.00;;
5890;SDS011;2971;52.420;7.080;2023-08-17T10:05:01;6.07;;;4.97;;
5890;SDS011;2971;52.420;7.080;2023-08-17T10:07:30;6.33;;;5.70;;
5890;SDS011;2971;52.420;7.080;2023-08-17T10:09:58;8.00;;;6.07;;
5890;SDS011;2971;52.420;7.080;2023-08-17T10:12:27;7.37;;;6.60;;
5890;SDS011;2971;52.420;7.080;2023-08-17T10:14:59;7.87;;;6.40;;
5890;SDS011;2971;52.420;7.080;2023-08-17T10:17:26;7.60;;;6.60;;
5890;SDS011;2971;52.420;7.080;2023-08-17T10:19:54;7.83;;;7.13;;
5890;SDS011;2971;52.420;7.080;2023-08-17T10:22:26;8.87;;;7.03;;
5890;SDS011;2971;52.420;7.080;2023-08-17T10:24:57;7.97;;;7.17;;
5890;SDS011;2971;52.420;7.080;2023-08-17T10:27:23;8.50;;;7.70;;
5890;SDS011;2971;52.420;7.080;2023-08-17T10:29:49;7.47;;;6.77;;
5890;SDS011;2971;52.420;7.080;2023-08-17T10:32:16;8.27;;;7.20;;
5890;SDS011;2971;52.420;7.080;2023-08-17T10:34:41;8.60;;;7.80;;
5890;SDS011;2971;52.420;7.080;2023-08-17T10:37:07;9.63;;;8.73;;
5890;SDS011;2971;52.420;7.080;2023-08-17T10:39:33;9.60;;;8.80;;
5890;SDS011;2971;52.420;7.080;2023-08-17T10:41:59;9.33;;;8.43;;
5890;SDS011;2971;52.420;7.080;2023-08-17T10:44:44;10.37;;;8.80;;
5890;SDS011;2971;52.420;7.080;2023-08-17T10:47:21;11.37;;;10.17;;
5890;SDS011;2971;52.420;7.080;2023-08-17T10:49:50;11.50;;;10.17;;
5890;SDS011;2971;52.420;7.080;2023-08-17T10:52:24;11.73;;;10.50;;
5890;SDS011;2971;52.420;7.080;2023-08-17T10:54:54;10.57;;;9.23;;
5890;SDS011;2971;52.420;7.080;2023-08-17T10:57:29;10.67;;;9.67;;
5890;SDS011;2971;52.420;7.080;2023-08-17T11:02:52;11.03;;;8.70;;
5890;SDS011;2971;52.420;7.080;2023-08-17T11:08:28;10.40;;;9.30;;
5890;SDS011;2971;52.420;7.080;2023-08-17T11:13:23;9.77;;;8.77;;
5890;SDS011;2971;52.420;7.080;2023-08-17T11:15:49;9.77;;;8.70;;
5890;SDS011;2971;52.420;7.080;2023-08-17T11:18:14;9.30;;;7.77;;
5890;SDS011;2971;52.420;7.080;2023-08-17T11:20:40;10.90;;;8.07;;
5890;SDS011;2971;52.420;7.080;2023-08-17T11:23:07;10.10;;;8.67;;
5890;SDS011;2971;52.420;7.080;2023-08-17T11:25:33;9.03;;;8.13;;
5890;SDS011;2971;52.420;7.080;2023-08-17T11:28:00;9.90;;;8.93;;
5890;SDS011;2971;52.420;7.080;2023-08-17T11:30:26;9.03;;;7.83;;
5890;SDS011;2971;52.420;7.080;2023-08-17T11:32:53;9.60;;;8.30;;
5890;SDS011;2971;52.420;7.080;2023-08-17T11:35:19;9.50;;;8.47;;
5890;SDS011;2971;52.420;7.080;2023-08-17T11:37:46;10.20;;;8.17;;
5890;SDS011;2971;52.420;7.080;2023-08-17T11:40:13;8.90;;;8.00;;
5890;SDS011;2971;52.420;7.080;2023-08-17T11:42:39;10.10;;;8.20;;
5890;SDS011;2971;52.420;7.080;2023-08-17T11:45:05;9.07;;;8.23;;
5890;SDS011;2971;52.420;7.080;2023-08-17T11:47:31;12.00;;;9.33;;
5890;SDS011;2971;52.420;7.080;2023-08-17T11:50:04;10.10;;;8.40;;
5890;SDS011;2971;52.420;7.080;2023-08-17T11:52:30;10.43;;;9.37;;
5890;SDS011;2971;52.420;7.080;2023-08-17T11:55:01;9.47;;;8.40;;
5890;SDS011;2971;52.420;7.080;2023-08-17T11:57:27;9.03;;;8.17;;
5890;SDS011;2971;52.420;7.080;2023-08-17T11:59:53;10.47;;;9.30;;
5890;SDS011;2971;52.420;7.080;2023-08-17T12:02:20;10.23;;;9.13;;
5890;SDS011;2971;52.420;7.080;2023-08-17T12:04:47;14.80;;;11.77;;
5890;SDS011;2971;52.420;7.080;2023-08-17T12:07:13;10.23;;;8.93;;
5890;SDS011;2971;52.420;7.080;2023-08-17T12:09:38;9.50;;;8.60;;
5890;SDS011;2971;52.420;7.080;2023-08-17T12:12:04;10.63;;;8.93;;
5890;SDS011;2971;52.420;7.080;2023-08-17T12:14:30;10.33;;;9.23;;
5890;SDS011;2971;52.420;7.080;2023-08-17T12:16:55;9.33;;;7.90;;
5890;SDS011;2971;52.420;7.080;2023-08-17T12:19:21;10.00;;;8.83;;
5890;SDS011;2971;52.420;7.080;2023-08-17T12:21:50;9.60;;;7.93;;
5890;SDS011;2971;52.420;7.080;2023-08-17T12:24:15;9.90;;;8.23;;
5890;SDS011;2971;52.420;7.080;2023-08-17T12:26:42;11.03;;;9.10;;
5890;SDS011;2971;52.420;7.080;2023-08-17T12:29:08;10.13;;;8.90;;
5890;SDS011;2971;52.420;7.080;2023-08-17T12:31:34;12.20;;;8.67;;
5890;SDS011;2971;52.420;7.080;2023-08-17T12:33:59;11.03;;;9.43;;
5890;SDS011;2971;52.420;7.080;2023-08-17T12:36:25;10.10;;;8.77;;
5890;SDS011;2971;52.420;7.080;2023-08-17T12:38:50;10.30;;;8.43;;
5890;SDS011;2971;52.420;7.080;2023-08-17T12:41:16;8.93;;;7.87;;
5890;SDS011;2971;52.420;7.080;2023-08-17T12:43:42;10.73;;;8.00;;
5890;SDS011;2971;52.420;7.080;2023-08-17T12:46:08;13.47;;;8.60;;
5890;SDS011;2971;52.420;7.080;2023-08-17T12:48:33;9.40;;;8.00;;
5890;SDS011;2971;52.420;7.080;2023-08-17T12:50:59;10.80;;;8.77;;
5890;SDS011;2971;52.420;7.080;2023-08-17T12:53:24;9.43;;;8.57;;
5890;SDS011;2971;52.420;7.080;2023-08-17T12:55:49;11.30;;;8.70;;
5890;SDS011;2971;52.420;7.080;2023-08-17T12:58:15;10.23;;;8.70;;
5890;SDS011;2971;52.420;7.080;2023-08-17T13:00:40;10.13;;;9.13;;
5890;SDS011;2971;52.420;7.080;2023-08-17T13:03:06;9.13;;;8.23;;
5890;SDS011;2971;52.420;7.080;2023-08-17T13:05:32;10.27;;;9.17;;
5890;SDS011;2971;52.420;7.080;2023-08-17T13:07:58;9.80;;;8.80;;
5890;SDS011;2971;52.420;7.080;2023-08-17T13:10:23;9.97;;;8.97;;
5890;SDS011;2971;52.420;7.080;2023-08-17T13:12:48;11.37;;;9.37;;
5890;SDS011;2971;52.420;7.080;2023-08-17T13:15:14;9.90;;;8.90;;
5890;SDS011;2971;52.420;7.080;2023-08-17T13:17:40;10.07;;;8.73;;
5890;SDS011;2971;52.420;7.080;2023-08-17T13:20:05;10.00;;;9.00;;
5890;SDS011;2971;52.420;7.080;2023-08-17T13:22:31;9.63;;;8.73;;
5890;SDS011;2971;52.420;7.080;2023-08-17T13:24:57;9.67;;;8.77;;
5890;SDS011;2971;52.420;7.080;2023-08-17T13:27:22;9.70;;;8.53;;
5890;SDS011;2971;52.420;7.080;2023-08-17T13:29:48;10.43;;;9.43;;
5890;SDS011;2971;52.420;7.080;2023-08-17T13:32:13;9.33;;;8.17;;
5890;SDS011;2971;52.420;7.080;2023-08-17T13:34:39;12.40;;;8.80;;
5890;SDS011;2971;52.420;7.080;2023-08-17T13:37:04;8.87;;;8.00;;
5890;SDS011;2971;52.420;7.080;2023-08-17T13:39:29;9.30;;;8.07;;
5890;SDS011;2971;52.420;7.080;2023-08-17T13:41:55;9.17;;;8.10;;
5890;SDS011;2971;52.420;7.080;2023-08-17T13:44:20;9.87;;;8.50;;
5890;SDS011;2971;52.420;7.080;2023-08-17T13:46:46;9.13;;;8.27;;
5890;SDS011;2971;52.420;7.080;2023-08-17T13:49:11;8.47;;;7.67;;
5890;SDS011;2971;52.420;7.080;2023-08-17T13:51:37;8.80;;;7.70;;
5890;SDS011;2971;52.420;7.080;2023-08-17T13:54:02;8.00;;;7.20;;
5890;SDS011;2971;52.420;7.080;2023-08-17T13:56:28;8.83;;;7.67;;
5890;SDS011;2971;52.420;7.080;2023-08-17T13:58:53;11.03;;;7.43;;
5890;SDS011;2971;52.420;7.080;2023-08-17T14:01:19;8.00;;;7.30;;
5890;SDS011;2971;52.420;7.080;2023-08-17T14:03:44;7.70;;;6.87;;
5890;SDS011;2971;52.420;7.080;2023-08-17T14:06:10;7.43;;;6.83;;
5890;SDS011;2971;52.420;7.080;2023-08-17T14:08:36;8.23;;;7.43;;
5890;SDS011;2971;52.420;7.080;2023-08-17T14:11:01;10.40;;;7.03;;
5890;SDS011;2971;52.420;7.080;2023-08-17T14:13:27;9.03;;;6.53;;
5890;SDS011;2971;52.420;7.080;2023-08-17T14:15:53;7.43;;;6.50;;
5890;SDS011;2971;52.420;7.080;2023-08-17T14:18:21;7.00;;;6.37;;
5890;SDS011;2971;52.420;7.080;2023-08-17T14:20:47;7.20;;;6.50;;
5890;SDS011;2971;52.420;7.080;2023-08-17T14:23:12;8.13;;;6.40;;
5890;SDS011;2971;52.420;7.080;2023-08-17T14:25:37;9.60;;;6.70;;
5890;SDS011;2971;52.420;7.080;2023-08-17T14:28:03;6.53;;;5.77;;
5890;SDS011;2971;52.420;7.080;2023-08-17T14:30:29;7.53;;;6.17;;
5890;SDS011;2971;52.420;7.080;2023-08-17T14:32:55;7.00;;;6.27;;
5890;SDS011;2971;52.420;7.080;2023-08-17T14:35:20;7.47;;;6.47;;
5890;SDS011;2971;52.420;7.080;2023-08-17T14:37:45;6.80;;;6.10;;
5890;SDS011;2971;52.420;7.080;2023-08-17T14:40:11;8.67;;;5.90;;
5890;SDS011;2971;52.420;7.080;2023-08-17T14:42:37;6.47;;;5.97;;
5890;SDS011;2971;52.420;7.080;2023-08-17T14:45:03;6.97;;;6.10;;
5890;SDS011;2971;52.420;7.080;2023-08-17T14:47:29;7.00;;;6.37;;
5890;SDS011;2971;52.420;7.080;2023-08-17T14:49:54;7.83;;;6.37;;
5890;SDS011;2971;52.420;7.080;2023-08-17T14:52:21;6.70;;;6.10;;
5890;SDS011;2971;52.420;7.080;2023-08-17T14:54:46;6.40;;;5.80;;
5890;SDS011;2971;52.420;7.080;2023-08-17T14:57:11;6.50;;;5.90;;
5890;SDS011;2971;52.420;7.080;2023-08-17T14:59:37;6.10;;;5.50;;
5890;SDS011;2971;52.420;7.080;2023-08-17T15:02:02;6.70;;;6.10;;
5890;SDS011;2971;52.420;7.080;2023-08-17T15:04:28;7.37;;;6.73;;
5890;SDS011;2971;52.420;7.080;2023-08-17T15:06:53;8.57;;;7.53;;
5890;SDS011;2971;52.420;7.080;2023-08-17T15:09:18;8.97;;;8.13;;
5890;SDS011;2971;52.420;7.080;2023-08-17T15:11:44;9.77;;;8.87;;
5890;SDS011;2971;52.420;7.080;2023-08-17T15:14:10;10.43;;;9.37;;
5890;SDS011;2971;52.420;7.080;2023-08-17T15:16:36;10.57;;;9.57;;
5890;SDS011;2971;52.420;7.080;2023-08-17T15:19:01;9.90;;;8.90;;
5890;SDS011;2971;52.420;7.080;2023-08-17T15:21:27;9.60;;;8.70;;